sensor_id;sensor_type;location;lat;lon;timestamp;pressure;altitude;pressure_sealevel;temperature
76583;BMP280;65462;52.148;7.940;2023-06-19T00:01:07;100230.47;;;24.18
76583;BMP280;65462;52.148;7.940;2023-06-19T00:03:33;100229.72;;;24.17
76583;BMP280;65462;52.148;7.940;2023-06-19T00:05:58;100220.53;;;24.15
76583;BMP280;65462;52.148;7.940;2023-06-19T00:08:23;100207.22;;;24.08
76583;BMP280;65462;52.148;7.940;2023-06-19T00:10:48;100212.81;;;24.13
76583;BMP280;65462;52.148;7.940;2023-06-19T00:13:14;100205.19;;;24.12
76583;BMP280;65462;52.148;7.940;2023-06-19T00:15:39;100193.69;;;24.08
76583;BMP280;65462;52.148;7.940;2023-06-19T00:18:05;100195.97;;;24.09
76583;BMP280;65462;52.148;7.940;2023-06-19T00:20:32;100190.13;;;24.11
76583;BMP280;65462;52.148;7.940;2023-06-19T00:22:57;100185.59;;;24.08
76583;BMP280;65462;52.148;7.940;2023-06-19T00:25:22;100183.72;;;24.05
76583;BMP280;65462;52.148;7.940;2023-06-19T00:27:47;100175.31;;;24.03
76583;BMP280;65462;52.148;7.940;2023-06-19T00:30:14;100179.94;;;24.02
76583;BMP280;65462;52.148;7.940;2023-06-19T00:32:39;100176.94;;;24.00
76583;BMP280;65462;52.148;7.940;2023-06-19T00:35:13;100173.78;;;24.02
76583;BMP280;65462;52.148;7.940;2023-06-19T00:37:39;100176.94;;;24.00
76583;BMP280;65462;52.148;7.940;2023-06-19T00:40:07;100165.38;;;24.00
76583;BMP280;65462;52.148;7.940;2023-06-19T00:42:33;100152.06;;;23.93
76583;BMP280;65462;52.148;7.940;2023-06-19T00:44:59;100153.03;;;23.99
76583;BMP280;65462;52.148;7.940;2023-06-19T00:47:24;100156.16;;;23.97
76583;BMP280;65462;52.148;7.940;2023-06-19T00:49:50;100159.09;;;23.90
76583;BMP280;65462;52.148;7.940;2023-06-19T00:52:16;100159.47;;;23.89
76583;BMP280;65462;52.148;7.940;2023-06-19T00:54:42;100161.41;;;23.88
76583;BMP280;65462;52.148;7.940;2023-06-19T00:57:08;100160.34;;;23.86
76583;BMP280;65462;52.148;7.940;2023-06-19T00:59:34;100155.25;;;23.88
76583;BMP280;65462;52.148;7.940;2023-06-19T01:01:59;100156.09;;;23.84
76583;BMP280;65462;52.148;7.940;2023-06-19T01:04:25;100164.22;;;23.84
76583;BMP280;65462;52.148;7.940;2023-06-19T01:06:54;100161.88;;;23.87
76583;BMP280;65462;52.148;7.940;2023-06-19T01:09:27;100161.50;;;23.84
76583;BMP280;65462;52.148;7.940;2023-06-19T01:11:59;100155.78;;;23.83
76583;BMP280;65462;52.148;7.940;2023-06-19T01:14:30;100158.16;;;23.80
76583;BMP280;65462;52.148;7.940;2023-06-19T01:16:57;100160.19;;;23.76
76583;BMP280;65462;52.148;7.940;2023-06-19T01:19:22;100160.94;;;23.77
76583;BMP280;65462;52.148;7.940;2023-06-19T01:21:48;100164.84;;;23.76
76583;BMP280;65462;52.148;7.940;2023-06-19T01:24:15;100177.56;;;23.75
76583;BMP280;65462;52.148;7.940;2023-06-19T01:26:41;100181.44;;;23.74
76583;BMP280;65462;52.148;7.940;2023-06-19T01:29:10;100183.06;;;23.72
76583;BMP280;65462;52.148;7.940;2023-06-19T01:31:45;100191.94;;;23.72
76583;BMP280;65462;52.148;7.940;2023-06-19T01:34:12;100189.31;;;23.69
76583;BMP280;65462;52.148;7.940;2023-06-19T01:36:38;100177.75;;;23.68
76583;BMP280;65462;52.148;7.940;2023-06-19T01:39:04;100181.66;;;23.67
76583;BMP280;65462;52.148;7.940;2023-06-19T01:41:30;100190.91;;;23.66
76583;BMP280;65462;52.148;7.940;2023-06-19T01:43:57;100177.84;;;23.65
76583;BMP280;65462;52.148;7.940;2023-06-19T01:46:23;100174.81;;;23.63
76583;BMP280;65462;52.148;7.940;2023-06-19T01:48:48;100185.69;;;23.59
76583;BMP280;65462;52.148;7.940;2023-06-19T01:51:13;100181.44;;;23.58
76583;BMP280;65462;52.148;7.940;2023-06-19T01:53:38;100174.22;;;23.55
76583;BMP280;65462;52.148;7.940;2023-06-19T01:56:04;100182.00;;;23.53
76583;BMP280;65462;52.148;7.940;2023-06-19T01:58:29;100183.59;;;23.51
76583;BMP280;65462;52.148;7.940;2023-06-19T02:00:55;100180.53;;;23.49
76583;BMP280;65462;52.148;7.940;2023-06-19T02:03:20;100172.56;;;23.45
76583;BMP280;65462;52.148;7.940;2023-06-19T02:05:46;100169.88;;;23.45
76583;BMP280;65462;52.148;7.940;2023-06-19T02:08:11;100177.63;;;23.43
76583;BMP280;65462;52.148;7.940;2023-06-19T02:10:36;100176.84;;;23.43
76583;BMP280;65462;52.148;7.940;2023-06-19T02:13:02;100178.44;;;23.40
76583;BMP280;65462;52.148;7.940;2023-06-19T02:15:28;100175.81;;;23.37
76583;BMP280;65462;52.148;7.940;2023-06-19T02:17:57;100171.66;;;23.36
76583;BMP280;65462;52.148;7.940;2023-06-19T02:20:23;100173.66;;;23.32
76583;BMP280;65462;52.148;7.940;2023-06-19T02:22:52;100172.59;;;23.29
76583;BMP280;65462;52.148;7.940;2023-06-19T02:25:17;100162.59;;;23.26
76583;BMP280;65462;52.148;7.940;2023-06-19T02:27:42;100168.81;;;23.23
76583;BMP280;65462;52.148;7.940;2023-06-19T02:30:08;100161.94;;;23.22
76583;BMP280;65462;52.148;7.940;2023-06-19T02:32:34;100163.53;;;23.20
76583;BMP280;65462;52.148;7.940;2023-06-19T02:34:59;100166.31;;;23.16
76583;BMP280;65462;52.148;7.940;2023-06-19T02:37:24;100169.88;;;23.13
76583;BMP280;65462;52.148;7.940;2023-06-19T02:39:49;100158.69;;;23.11
76583;BMP280;65462;52.148;7.940;2023-06-19T02:42:15;100161.09;;;23.09
76583;BMP280;65462;52.148;7.940;2023-06-19T02:44:40;100158.03;;;23.07
76583;BMP280;65462;52.148;7.940;2023-06-19T02:47:07;100157.78;;;23.02
76583;BMP280;65462;52.148;7.940;2023-06-19T02:49:33;100152.81;;;23.00
76583;BMP280;65462;52.148;7.940;2023-06-19T02:51:58;100146.75;;;22.96
76583;BMP280;65462;52.148;7.940;2023-06-19T02:54:23;100145.56;;;22.97
76583;BMP280;65462;52.148;7.940;2023-06-19T02:56:48;100150.28;;;22.93
76583;BMP280;65462;52.148;7.940;2023-06-19T02:59:14;100157.28;;;22.91
76583;BMP280;65462;52.148;7.940;2023-06-19T03:01:39;100161.13;;;22.90
76583;BMP280;65462;52.148;7.940;2023-06-19T03:04:04;100160.06;;;22.87
76583;BMP280;65462;52.148;7.940;2023-06-19T03:06:30;100157.75;;;22.86
76583;BMP280;65462;52.148;7.940;2023-06-19T03:08:55;100165.09;;;22.85
76583;BMP280;65462;52.148;7.940;2023-06-19T03:11:21;100157.06;;;22.82
76583;BMP280;65462;52.148;7.940;2023-06-19T03:13:51;100170.53;;;22.82
76583;BMP280;65462;52.148;7.940;2023-06-19T03:16:17;100159.81;;;22.78
76583;BMP280;65462;52.148;7.940;2023-06-19T03:18:43;100156.44;;;22.78
76583;BMP280;65462;52.148;7.940;2023-06-19T03:21:10;100157.25;;;22.75
76583;BMP280;65462;52.148;7.940;2023-06-19T03:23:35;100160.78;;;22.72
76583;BMP280;65462;52.148;7.940;2023-06-19T03:26:01;100166.25;;;22.68
76583;BMP280;65462;52.148;7.940;2023-06-19T03:28:26;100165.88;;;22.66
76583;BMP280;65462;52.148;7.940;2023-06-19T03:30:51;100164.38;;;22.65
76583;BMP280;65462;52.148;7.940;2023-06-19T03:33:17;100179.44;;;22.63
76583;BMP280;65462;52.148;7.940;2023-06-19T03:35:43;100170.25;;;22.60
76583;BMP280;65462;52.148;7.940;2023-06-19T03:38:08;100179.50;;;22.59
76583;BMP280;65462;52.148;7.940;2023-06-19T03:40:33;100187.25;;;22.57
76583;BMP280;65462;52.148;7.940;2023-06-19T03:42:58;100180.31;;;22.56
76583;BMP280;65462;52.148;7.940;2023-06-19T03:45:24;100182.69;;;22.54
76583;BMP280;65462;52.148;7.940;2023-06-19T03:47:49;100185.03;;;22.52
76583;BMP280;65462;52.148;7.940;2023-06-19T03:50:14;100182.75;;;22.50
76583;BMP280;65462;52.148;7.940;2023-06-19T03:52:40;100196.66;;;22.49
76583;BMP280;65462;52.148;7.940;2023-06-19T03:55:05;100190.16;;;22.46
76583;BMP280;65462;52.148;7.940;2023-06-19T03:57:30;100189.38;;;22.46
76583;BMP280;65462;52.148;7.940;2023-06-19T03:59:56;100193.25;;;22.45
76583;BMP280;65462;52.148;7.940;2023-06-19T04:02:21;100199.84;;;22.44
76583;BMP280;65462;52.148;7.940;2023-06-19T04:04:47;100189.06;;;22.44
76583;BMP280;65462;52.148;7.940;2023-06-19T04:07:12;100191.41;;;22.42
76583;BMP280;65462;52.148;7.940;2023-06-19T04:09:38;100193.31;;;22.41
76583;BMP280;65462;52.148;7.940;2023-06-19T04:12:04;100197.94;;;22.41
76583;BMP280;65462;52.148;7.940;2023-06-19T04:14:30;100192.63;;;22.37
76583;BMP280;65462;52.148;7.940;2023-06-19T04:16:55;100196.84;;;22.38
76583;BMP280;65462;52.148;7.940;2023-06-19T04:19:20;100206.88;;;22.38
76583;BMP280;65462;52.148;7.940;2023-06-19T04:21:45;100207.69;;;22.35
76583;BMP280;65462;52.148;7.940;2023-06-19T04:24:11;100209.25;;;22.36
76583;BMP280;65462;52.148;7.940;2023-06-19T04:26:36;100205.41;;;22.33
76583;BMP280;65462;52.148;7.940;2023-06-19T04:29:02;100217.72;;;22.34
76583;BMP280;65462;52.148;7.940;2023-06-19T04:31:27;100218.13;;;22.33
76583;BMP280;65462;52.148;7.940;2023-06-19T04:33:54;100212.38;;;22.31
76583;BMP280;65462;52.148;7.940;2023-06-19T04:36:21;100223.16;;;22.31
76583;BMP280;65462;52.148;7.940;2023-06-19T04:38:46;100225.09;;;22.30
76583;BMP280;65462;52.148;7.940;2023-06-19T04:41:11;100232.41;;;22.30
76583;BMP280;65462;52.148;7.940;2023-06-19T04:43:37;100228.22;;;22.29
76583;BMP280;65462;52.148;7.940;2023-06-19T04:46:02;100238.16;;;22.32
76583;BMP280;65462;52.148;7.940;2023-06-19T04:48:29;100246.31;;;22.28
76583;BMP280;65462;52.148;7.940;2023-06-19T04:50:54;100250.22;;;22.24
76583;BMP280;65462;52.148;7.940;2023-06-19T04:53:21;100259.47;;;22.23
76583;BMP280;65462;52.148;7.940;2023-06-19T04:55:46;100258.78;;;22.19
76583;BMP280;65462;52.148;7.940;2023-06-19T04:58:12;100253.38;;;22.19
76583;BMP280;65462;52.148;7.940;2023-06-19T05:00:37;100252.56;;;22.22
76583;BMP280;65462;52.148;7.940;2023-06-19T05:03:02;100254.88;;;22.23
76583;BMP280;65462;52.148;7.940;2023-06-19T05:05:28;100248.66;;;22.26
76583;BMP280;65462;52.148;7.940;2023-06-19T05:07:53;100250.94;;;22.28
76583;BMP280;65462;52.148;7.940;2023-06-19T05:10:19;100258.53;;;22.33
76583;BMP280;65462;52.148;7.940;2023-06-19T05:12:44;100258.44;;;22.36
76583;BMP280;65462;52.148;7.940;2023-06-19T05:15:10;100258.41;;;22.40
76583;BMP280;65462;52.148;7.940;2023-06-19T05:17:35;100250.66;;;22.42
76583;BMP280;65462;52.148;7.940;2023-06-19T05:20:01;100266.00;;;22.45
76583;BMP280;65462;52.148;7.940;2023-06-19T05:22:26;100270.56;;;22.48
76583;BMP280;65462;52.148;7.940;2023-06-19T05:24:52;100280.91;;;22.49
76583;BMP280;65462;52.148;7.940;2023-06-19T05:27:17;100280.84;;;22.53
76583;BMP280;65462;52.148;7.940;2023-06-19T05:29:42;100281.22;;;22.55
76583;BMP280;65462;52.148;7.940;2023-06-19T05:32:08;100274.56;;;22.59
76583;BMP280;65462;52.148;7.940;2023-06-19T05:34:33;100272.56;;;22.63
76583;BMP280;65462;52.148;7.940;2023-06-19T05:36:58;100273.19;;;22.71
76583;BMP280;65462;52.148;7.940;2023-06-19T05:39:26;100274.63;;;22.76
76583;BMP280;65462;52.148;7.940;2023-06-19T05:41:51;100274.94;;;22.81
76583;BMP280;65462;52.148;7.940;2023-06-19T05:44:16;100276.34;;;22.86
76583;BMP280;65462;52.148;7.940;2023-06-19T05:46:43;100278.19;;;22.92
76583;BMP280;65462;52.148;7.940;2023-06-19T05:49:09;100281.88;;;22.98
76583;BMP280;65462;52.148;7.940;2023-06-19T05:51:34;100291.00;;;23.04
76583;BMP280;65462;52.148;7.940;2023-06-19T05:53:59;100297.53;;;23.07
76583;BMP280;65462;52.148;7.940;2023-06-19T05:56:29;100300.47;;;23.12
76583;BMP280;65462;52.148;7.940;2023-06-19T05:58:54;100296.88;;;23.19
76583;BMP280;65462;52.148;7.940;2023-06-19T06:01:20;100301.00;;;23.23
76583;BMP280;65462;52.148;7.940;2023-06-19T06:03:45;100306.31;;;23.27
76583;BMP280;65462;52.148;7.940;2023-06-19T06:06:10;100304.31;;;23.31
76583;BMP280;65462;52.148;7.940;2023-06-19T06:08:37;100310.66;;;23.40
76583;BMP280;65462;52.148;7.940;2023-06-19T06:11:02;100311.00;;;23.42
76583;BMP280;65462;52.148;7.940;2023-06-19T06:13:27;100317.06;;;23.46
76583;BMP280;65462;52.148;7.940;2023-06-19T06:15:53;100323.16;;;23.50
76583;BMP280;65462;52.148;7.940;2023-06-19T06:18:19;100325.34;;;23.55
76583;BMP280;65462;52.148;7.940;2023-06-19T06:20:44;100327.56;;;23.60
76583;BMP280;65462;52.148;7.940;2023-06-19T06:23:10;100340.56;;;23.65
76583;BMP280;65462;52.148;7.940;2023-06-19T06:25:35;100345.03;;;23.72
76583;BMP280;65462;52.148;7.940;2023-06-19T06:28:01;100342.25;;;23.75
76583;BMP280;65462;52.148;7.940;2023-06-19T06:30:26;100349.50;;;23.78
76583;BMP280;65462;52.148;7.940;2023-06-19T06:32:53;100357.88;;;23.84
76583;BMP280;65462;52.148;7.940;2023-06-19T06:35:18;100358.53;;;23.88
76583;BMP280;65462;52.148;7.940;2023-06-19T06:37:43;100352.19;;;23.95
76583;BMP280;65462;52.148;7.940;2023-06-19T06:40:11;100349.78;;;24.00
76583;BMP280;65462;52.148;7.940;2023-06-19T06:42:37;100356.50;;;24.08
76583;BMP280;65462;52.148;7.940;2023-06-19T06:45:06;100356.75;;;24.14
76583;BMP280;65462;52.148;7.940;2023-06-19T06:47:32;100360.38;;;24.23
76583;BMP280;65462;52.148;7.940;2023-06-19T06:49:58;100355.88;;;24.33
76583;BMP280;65462;52.148;7.940;2023-06-19T06:52:23;100361.88;;;24.40
76583;BMP280;65462;52.148;7.940;2023-06-19T06:54:49;100361.63;;;24.51
76583;BMP280;65462;52.148;7.940;2023-06-19T06:57:14;100374.59;;;24.56
76583;BMP280;65462;52.148;7.940;2023-06-19T06:59:39;100376.03;;;24.60
76583;BMP280;65462;52.148;7.940;2023-06-19T07:02:05;100382.38;;;24.70
76583;BMP280;65462;52.148;7.940;2023-06-19T07:04:30;100386.38;;;24.78
76583;BMP280;65462;52.148;7.940;2023-06-19T07:06:56;100380.47;;;24.83
76583;BMP280;65462;52.148;7.940;2023-06-19T07:09:23;100398.09;;;24.87
76583;BMP280;65462;52.148;7.940;2023-06-19T07:11:49;100390.72;;;24.88
76583;BMP280;65462;52.148;7.940;2023-06-19T07:14:15;100402.09;;;24.83
76583;BMP280;65462;52.148;7.940;2023-06-19T07:16:43;100403.06;;;24.89
76583;BMP280;65462;52.148;7.940;2023-06-19T07:19:09;100399.28;;;24.86
76583;BMP280;65462;52.148;7.940;2023-06-19T07:21:34;100401.63;;;24.84
76583;BMP280;65462;52.148;7.940;2023-06-19T07:23:59;100403.59;;;24.84
76583;BMP280;65462;52.148;7.940;2023-06-19T07:26:25;100408.34;;;24.80
76583;BMP280;65462;52.148;7.940;2023-06-19T07:28:50;100412.66;;;24.77
76583;BMP280;65462;52.148;7.940;2023-06-19T07:31:15;100406.53;;;24.77
76583;BMP280;65462;52.148;7.940;2023-06-19T07:33:41;100404.97;;;24.76
76583;BMP280;65462;52.148;7.940;2023-06-19T07:36:06;100411.84;;;24.80
76583;BMP280;65462;52.148;7.940;2023-06-19T07:38:32;100411.84;;;24.80
76583;BMP280;65462;52.148;7.940;2023-06-19T07:40:57;100402.59;;;24.78
76583;BMP280;65462;52.148;7.940;2023-06-19T07:43:23;100399.88;;;24.78
76583;BMP280;65462;52.148;7.940;2023-06-19T07:45:48;100406.53;;;24.77
76583;BMP280;65462;52.148;7.940;2023-06-19T07:48:14;100405.75;;;24.76
76583;BMP280;65462;52.148;7.940;2023-06-19T07:50:40;100400.34;;;24.76
76583;BMP280;65462;52.148;7.940;2023-06-19T07:53:05;100397.19;;;24.78
76583;BMP280;65462;52.148;7.940;2023-06-19T07:55:30;100401.31;;;24.82
76583;BMP280;65462;52.148;7.940;2023-06-19T07:57:55;100413.13;;;24.88
76583;BMP280;65462;52.148;7.940;2023-06-19T08:00:23;100410.75;;;24.90
76583;BMP280;65462;52.148;7.940;2023-06-19T08:02:48;100412.94;;;24.95
76583;BMP280;65462;52.148;7.940;2023-06-19T08:05:13;100415.56;;;24.99
76583;BMP280;65462;52.148;7.940;2023-06-19T08:07:39;100413.50;;;25.03
76583;BMP280;65462;52.148;7.940;2023-06-19T08:10:05;100412.88;;;25.11
76583;BMP280;65462;52.148;7.940;2023-06-19T08:12:30;100413.66;;;25.12
76583;BMP280;65462;52.148;7.940;2023-06-19T08:14:55;100422.88;;;25.15
76583;BMP280;65462;52.148;7.940;2023-06-19T08:17:21;100413.97;;;25.14
76583;BMP280;65462;52.148;7.940;2023-06-19T08:19:47;100420.56;;;25.26
76583;BMP280;65462;52.148;7.940;2023-06-19T08:22:12;100429.59;;;25.35
76583;BMP280;65462;52.148;7.940;2023-06-19T08:24:37;100426.38;;;25.40
76583;BMP280;65462;52.148;7.940;2023-06-19T08:27:05;100426.38;;;25.40
76583;BMP280;65462;52.148;7.940;2023-06-19T08:29:30;100435.94;;;25.45
76583;BMP280;65462;52.148;7.940;2023-06-19T08:31:55;100431.78;;;25.40
76583;BMP280;65462;52.148;7.940;2023-06-19T08:34:21;100435.00;;;25.35
76583;BMP280;65462;52.148;7.940;2023-06-19T08:36:46;100438.94;;;25.34
76583;BMP280;65462;52.148;7.940;2023-06-19T08:39:11;100444.44;;;25.31
76583;BMP280;65462;52.148;7.940;2023-06-19T08:41:37;100442.91;;;25.30
76583;BMP280;65462;52.148;7.940;2023-06-19T08:44:03;100437.09;;;25.31
76583;BMP280;65462;52.148;7.940;2023-06-19T08:46:28;100440.56;;;25.32
76583;BMP280;65462;52.148;7.940;2023-06-19T08:48:55;100442.81;;;25.33
76583;BMP280;65462;52.148;7.940;2023-06-19T08:51:20;100444.25;;;25.38
76583;BMP280;65462;52.148;7.940;2023-06-19T08:53:54;100443.28;;;25.44
76583;BMP280;65462;52.148;7.940;2023-06-19T08:56:20;100449.78;;;25.47
76583;BMP280;65462;52.148;7.940;2023-06-19T08:58:45;100451.63;;;25.50
76583;BMP280;65462;52.148;7.940;2023-06-19T09:01:10;100457.78;;;25.50
76583;BMP280;65462;52.148;7.940;2023-06-19T09:03:36;100458.97;;;25.49
76583;BMP280;65462;52.148;7.940;2023-06-19T09:06:07;100450.94;;;25.46
76583;BMP280;65462;52.148;7.940;2023-06-19T09:08:33;100460.16;;;25.48
76583;BMP280;65462;52.148;7.940;2023-06-19T09:11:02;100463.41;;;25.43
76583;BMP280;65462;52.148;7.940;2023-06-19T09:13:28;100470.09;;;25.39
76583;BMP280;65462;52.148;7.940;2023-06-19T09:16:05;100469.00;;;25.36
76583;BMP280;65462;52.148;7.940;2023-06-19T09:18:32;100465.31;;;25.30
76583;BMP280;65462;52.148;7.940;2023-06-19T09:21:06;100471.59;;;25.27
76583;BMP280;65462;52.148;7.940;2023-06-19T09:23:31;100473.22;;;25.25
76583;BMP280;65462;52.148;7.940;2023-06-19T09:25:57;100478.75;;;25.21
76583;BMP280;65462;52.148;7.940;2023-06-19T09:28:27;100472.13;;;25.22
76583;BMP280;65462;52.148;7.940;2023-06-19T09:33:21;100473.41;;;25.18
76583;BMP280;65462;52.148;7.940;2023-06-19T09:35:48;100474.94;;;25.19
76583;BMP280;65462;52.148;7.940;2023-06-19T09:38:16;100473.41;;;25.18
76583;BMP280;65462;52.148;7.940;2023-06-19T09:40:44;100483.78;;;25.19
76583;BMP280;65462;52.148;7.940;2023-06-19T09:43:09;100479.59;;;25.18
76583;BMP280;65462;52.148;7.940;2023-06-19T09:45:35;100487.25;;;25.20
76583;BMP280;65462;52.148;7.940;2023-06-19T09:48:00;100486.09;;;25.21
76583;BMP280;65462;52.148;7.940;2023-06-19T09:50:27;100484.16;;;25.21
76583;BMP280;65462;52.148;7.940;2023-06-19T09:52:52;100481.06;;;25.19
76583;BMP280;65462;52.148;7.940;2023-06-19T09:55:22;100483.78;;;25.19
76583;BMP280;65462;52.148;7.940;2023-06-19T09:57:50;100491.91;;;25.19
76583;BMP280;65462;52.148;7.940;2023-06-19T10:00:15;100493.88;;;25.19
76583;BMP280;65462;52.148;7.940;2023-06-19T10:02:47;100495.94;;;25.15
76583;BMP280;65462;52.148;7.940;2023-06-19T10:05:13;100493.63;;;25.13
76583;BMP280;65462;52.148;7.940;2023-06-19T10:07:42;100500.22;;;25.12
76583;BMP280;65462;52.148;7.940;2023-06-19T10:10:24;100500.22;;;25.12
76583;BMP280;65462;52.148;7.940;2023-06-19T10:12:50;100500.31;;;25.08
76583;BMP280;65462;52.148;7.940;2023-06-19T10:15:21;100499.59;;;25.08
76583;BMP280;65462;52.148;7.940;2023-06-19T10:17:59;100499.25;;;25.06
76583;BMP280;65462;52.148;7.940;2023-06-19T10:20:32;100492.28;;;25.05
76583;BMP280;65462;52.148;7.940;2023-06-19T10:25:37;100501.28;;;25.02
76583;BMP280;65462;52.148;7.940;2023-06-19T10:28:03;100495.53;;;25.00
76583;BMP280;65462;52.148;7.940;2023-06-19T10:30:31;100499.44;;;24.99
76583;BMP280;65462;52.148;7.940;2023-06-19T10:32:59;100503.63;;;25.00
76583;BMP280;65462;52.148;7.940;2023-06-19T10:35:27;100506.34;;;25.00
76583;BMP280;65462;52.148;7.940;2023-06-19T10:37:53;100512.53;;;25.00
76583;BMP280;65462;52.148;7.940;2023-06-19T10:40:19;100505.91;;;25.01
76583;BMP280;65462;52.148;7.940;2023-06-19T10:42:45;100505.81;;;25.05
76583;BMP280;65462;52.148;7.940;2023-06-19T10:45:12;100506.16;;;25.07
76583;BMP280;65462;52.148;7.940;2023-06-19T10:47:39;100508.44;;;25.08
76583;BMP280;65462;52.148;7.940;2023-06-19T10:50:09;100512.16;;;25.15
76583;BMP280;65462;52.148;7.940;2023-06-19T10:52:34;100512.38;;;25.20
76583;BMP280;65462;52.148;7.940;2023-06-19T10:55:00;100516.53;;;25.25
76583;BMP280;65462;52.148;7.940;2023-06-19T10:57:29;100510.94;;;25.32
76583;BMP280;65462;52.148;7.940;2023-06-19T10:59:55;100525.47;;;25.38
76583;BMP280;65462;52.148;7.940;2023-06-19T11:02:21;100514.84;;;25.43
76583;BMP280;65462;52.148;7.940;2023-06-19T11:04:46;100518.88;;;25.51
76583;BMP280;65462;52.148;7.940;2023-06-19T11:07:12;100515.63;;;25.56
76583;BMP280;65462;52.148;7.940;2023-06-19T11:09:37;100515.75;;;25.65
76583;BMP280;65462;52.148;7.940;2023-06-19T11:12:03;100506.25;;;25.73
76583;BMP280;65462;52.148;7.940;2023-06-19T11:14:29;100511.44;;;25.80
76583;BMP280;65462;52.148;7.940;2023-06-19T11:16:55;100511.16;;;25.91
76583;BMP280;65462;52.148;7.940;2023-06-19T11:19:21;100505.81;;;26.00
76583;BMP280;65462;52.148;7.940;2023-06-19T11:21:51;100498.56;;;26.09
76583;BMP280;65462;52.148;7.940;2023-06-19T11:24:18;100497.69;;;26.12
76583;BMP280;65462;52.148;7.940;2023-06-19T11:26:45;100502.22;;;26.15
76583;BMP280;65462;52.148;7.940;2023-06-19T11:29:22;100493.59;;;26.20
76583;BMP280;65462;52.148;7.940;2023-06-19T11:31:48;100494.22;;;26.24
76583;BMP280;65462;52.148;7.940;2023-06-19T11:34:15;100501.47;;;26.27
76583;BMP280;65462;52.148;7.940;2023-06-19T11:36:41;100498.22;;;26.32
76583;BMP280;65462;52.148;7.940;2023-06-19T11:39:14;100501.44;;;26.40
76583;BMP280;65462;52.148;7.940;2023-06-19T11:41:41;100507.72;;;26.49
76583;BMP280;65462;52.148;7.940;2023-06-19T11:44:07;100496.97;;;26.59
76583;BMP280;65462;52.148;7.940;2023-06-19T11:46:36;100504.53;;;26.64
76583;BMP280;65462;52.148;7.940;2023-06-19T11:49:11;100505.19;;;26.68
76583;BMP280;65462;52.148;7.940;2023-06-19T11:51:37;100498.66;;;26.78
76583;BMP280;65462;52.148;7.940;2023-06-19T11:54:05;100495.88;;;26.90
76583;BMP280;65462;52.148;7.940;2023-06-19T11:56:31;100500.03;;;27.04
76583;BMP280;65462;52.148;7.940;2023-06-19T11:58:56;100498.59;;;27.12
76583;BMP280;65462;52.148;7.940;2023-06-19T12:01:21;100498.69;;;27.21
76583;BMP280;65462;52.148;7.940;2023-06-19T12:03:47;100501.13;;;27.28
76583;BMP280;65462;52.148;7.940;2023-06-19T12:06:12;100502.09;;;27.34
76583;BMP280;65462;52.148;7.940;2023-06-19T12:08:37;100501.19;;;27.37
76583;BMP280;65462;52.148;7.940;2023-06-19T12:11:03;100491.50;;;27.36
76583;BMP280;65462;52.148;7.940;2023-06-19T12:13:30;100493.34;;;27.39
76583;BMP280;65462;52.148;7.940;2023-06-19T12:15:55;100493.97;;;27.43
76583;BMP280;65462;52.148;7.940;2023-06-19T12:18:20;100495.19;;;27.51
76583;BMP280;65462;52.148;7.940;2023-06-19T12:20:46;100483.31;;;27.57
76583;BMP280;65462;52.148;7.940;2023-06-19T12:23:11;100492.41;;;27.63
76583;BMP280;65462;52.148;7.940;2023-06-19T12:25:36;100491.69;;;27.72
76583;BMP280;65462;52.148;7.940;2023-06-19T12:28:02;100481.75;;;27.78
76583;BMP280;65462;52.148;7.940;2023-06-19T12:30:32;100486.16;;;27.84
76583;BMP280;65462;52.148;7.940;2023-06-19T12:32:58;100488.75;;;27.88
76583;BMP280;65462;52.148;7.940;2023-06-19T12:35:23;100490.69;;;27.87
76583;BMP280;65462;52.148;7.940;2023-06-19T12:37:51;100479.81;;;27.87
76583;BMP280;65462;52.148;7.940;2023-06-19T12:40:17;100484.34;;;27.90
76583;BMP280;65462;52.148;7.940;2023-06-19T12:42:42;100491.94;;;27.95
76583;BMP280;65462;52.148;7.940;2023-06-19T12:45:09;100479.06;;;27.96
76583;BMP280;65462;52.148;7.940;2023-06-19T12:47:34;100491.47;;;27.97
76583;BMP280;65462;52.148;7.940;2023-06-19T12:50:00;100497.53;;;28.01
76583;BMP280;65462;52.148;7.940;2023-06-19T12:52:26;100496.50;;;28.08
76583;BMP280;65462;52.148;7.940;2023-06-19T12:54:51;100489.25;;;28.04
76583;BMP280;65462;52.148;7.940;2023-06-19T12:57:16;100493.78;;;28.08
76583;BMP280;65462;52.148;7.940;2023-06-19T12:59:42;100500.13;;;28.04
76583;BMP280;65462;52.148;7.940;2023-06-19T13:02:07;100505.69;;;28.01
76583;BMP280;65462;52.148;7.940;2023-06-19T13:04:32;100506.13;;;27.99
76583;BMP280;65462;52.148;7.940;2023-06-19T13:06:57;100501.16;;;27.98
76583;BMP280;65462;52.148;7.940;2023-06-19T13:09:23;100495.84;;;27.94
76583;BMP280;65462;52.148;7.940;2023-06-19T13:11:49;100495.84;;;27.94
76583;BMP280;65462;52.148;7.940;2023-06-19T13:14:15;100504.44;;;27.93
76583;BMP280;65462;52.148;7.940;2023-06-19T13:16:40;100502.78;;;27.95
76583;BMP280;65462;52.148;7.940;2023-06-19T13:19:05;100500.22;;;27.92
76583;BMP280;65462;52.148;7.940;2023-06-19T13:21:31;100502.19;;;27.91
76583;BMP280;65462;52.148;7.940;2023-06-19T13:23:56;100500.22;;;27.92
76583;BMP280;65462;52.148;7.940;2023-06-19T13:26:21;100498.56;;;27.94
76583;BMP280;65462;52.148;7.940;2023-06-19T13:28:47;100489.22;;;27.95
76583;BMP280;65462;52.148;7.940;2023-06-19T13:31:12;100497.97;;;27.99
76583;BMP280;65462;52.148;7.940;2023-06-19T13:33:37;100498.44;;;27.98
76583;BMP280;65462;52.148;7.940;2023-06-19T13:36:03;100497.53;;;28.01
76583;BMP280;65462;52.148;7.940;2023-06-19T13:38:28;100500.25;;;28.01
76583;BMP280;65462;52.148;7.940;2023-06-19T13:40:53;100512.47;;;28.05
76583;BMP280;65462;52.148;7.940;2023-06-19T13:43:18;100505.84;;;28.06
76583;BMP280;65462;52.148;7.940;2023-06-19T13:45:45;100506.16;;;28.08
76583;BMP280;65462;52.148;7.940;2023-06-19T13:48:10;100505.25;;;28.11
76583;BMP280;65462;52.148;7.940;2023-06-19T13:50:36;100507.06;;;28.14
76583;BMP280;65462;52.148;7.940;2023-06-19T13:53:01;100499.66;;;28.15
76583;BMP280;65462;52.148;7.940;2023-06-19T13:55:27;100494.53;;;28.17